PHTO/ITO METAR and TAF weather

Enter ICAO airport designator
Station Type Date Time Source
PHTO METAR 2022/10/01 08:53 UTC NOAA

PHTO 010853Z AUTO 24006KT 10SM FEW050 22/17 A3001 RMK AO2 SLP159 T02170172 50003 TSNO


Station Type Date Time Source
PHTO Decoded METAR 2022/10/01 08:53 UTC NOAA

HILO INTERNATIONAL AIRPORT, HI, United States (PHTO) 19-43N 155-03W 12M
Oct 01, 2022 - 04:53 AM EDT / 2022.10.01 0853 UTC
Wind: from the WSW (240 degrees) at 7 MPH (6 KT):0
Visibility: 10 mile(s):0
Sky conditions: mostly clear
Temperature: 71.1 F (21.7 C)
Dew Point: 63.0 F (17.2 C)
Relative Humidity: 75%
Pressure (altimeter): 30.01 in. Hg (1016 hPa)
Pressure tendency: 0.01 inches (0.3 hPa) higher than three hours ago
ob: PHTO 010853Z AUTO 24006KT 10SM FEW050 22/17 A3001 RMK AO2 SLP159 T02170172 50003 TSNO
cycle: 9

Station Type Date Time Source
PHTO TAF 2022/10/01 06:22 UTC NOAA

TAF PHTO 010520Z 0106/0206 24006KT P6SM FEW025 SCT040
FM012000 05006KT P6SM FEW040
FM020500 24004KT P6SM FEW040

Example: see airport list